Lammy — PBRE — position and weather

sailwx.info

Track history (hours):
 
Tides and Currents Weather Stations Pressure Air Temp Water Temp Dewpoint Dewpoint Depression Visibility Wind Speed Wind Dir Waves Ship Positions

Lammy

Last reported at 2014-Oct-31 18:33 UTC. Time now 2014-Oct-31 19:22 UTC.
Position N 55°60' E 012°42'.

Length 95 m; draft 5.8 m.

Type: Cargo ship. MMSI: 245391000.

Date/timePositionNaut miles runAvg speedWind from/ knotsBaromVisibWave heightAir tempDewpointWater temp
2014-Oct-31 18:33N 55°60' E 012°42'1110.9
2014-Oct-31 17:33N 55°49' E 012°44'1111.3
2014-Oct-31 16:33N 55°38' E 012°42'1211.8
2014-Oct-31 15:33N 55°26' E 012°42'5510.5
2014-Oct-31 10:21N 55°14' E 014°16'1411.7
2014-Oct-31 09:10N 55°24' E 014°32'811.6
2014-Oct-31 08:27N 55°29' E 014°44'1211.8
2014-Oct-31 07:27N 55°35' E 015°02'11111.2
2014-Oct-30 21:33N 56°57' E 017°16'1211.6
2014-Oct-30 20:33N 57°08' E 017°25'1111.4
2014-Oct-30 19:33N 57°19' E 017°33'  
2014-Oct-26 06:28N 57°27' E 017°48'1011.5
2014-Oct-26 05:33N 57°18' E 017°40'1211.8
2014-Oct-26 04:30N 57°06' E 017°32'11711.2
2014-Oct-25 18:03N 55°35' E 015°20'611.8
2014-Oct-25 17:33N 55°32' E 015°11'1211.8
2014-Oct-25 16:33N 55°27' E 014°52'1211.8
2014-Oct-25 15:33N 55°20' E 014°35'1212.0
2014-Oct-25 14:33N 55°11' E 014°22'1211.9
2014-Oct-25 13:33N 55°02' E 014°07'7011.7
2014-Oct-25 07:32N 54°32' E 012°17'1111.4
2014-Oct-25 06:33N 54°24' E 012°02'4711.7
2014-Oct-25 02:32N 54°32' E 010°42'1212.1
2014-Oct-25 01:33N 54°30' E 010°23'1110.7
2014-Oct-25 00:33N 54°22' E 010°10'1 1.4
2014-Oct-24 23:33N 54°22' E 010°07'8 7.6
2014-Oct-24 22:33N 54°21' E 009°55'7 7.1
2014-Oct-24 21:31N 54°18' E 009°43'8 7.1
2014-Oct-24 20:26N 54°13' E 009°34'25 6.1
2014-Oct-24 16:23N 53°53' E 009°08'5 6.5
2014-Oct-24 15:33N 53°51' E 008°60'1010.0
2014-Oct-24 14:33N 53°53' E 008°43'1110.1
2014-Oct-24 13:26N 53°59' E 008°27'7812.8
2014-Oct-24 07:23N 53°43' E 006°18'1113.5
2014-Oct-24 06:33N 53°39' E 006°00'1313.4
2014-Oct-24 05:33N 53°35' E 005°38'1413.8
2014-Oct-24 04:33N 53°31' E 005°16'1413.7
2014-Oct-24 03:32N 53°26' E 004°55'1312.7
2014-Oct-24 02:32N 53°18' E 004°38'1312.9
2014-Oct-24 01:32N 53°07' E 004°28'1312.2
2014-Oct-24 00:31N 52°56' E 004°18'11811.8
2014-Oct-23 14:32N 51°26' E 002°14'1414.1
2014-Oct-23 13:33N 51°14' E 002°03'1514.7
2014-Oct-23 12:33N 51°05' E 001°45'15311.7
2014-Oct-22 23:29N 50°15' W 002°03'1111.1
2014-Oct-22 22:29N 50°14' W 002°20'1112.2
2014-Oct-22 21:33N 50°13' W 002°37'1312.8
2014-Oct-22 20:33N 50°13' W 002°57'1313.0
2014-Oct-22 19:33N 50°12' W 003°18'1313.2
2014-Oct-22 18:33N 50°10' W 003°38'  
Track history (hours):
 
Tides and Currents Weather Stations Pressure Air Temp Water Temp Dewpoint Dewpoint Depression Visibility Wind Speed Wind Dir Waves Ship Positions

Lammy

Last reported at 2014-Oct-31 18:33 UTC. Time now 2014-Oct-31 19:22 UTC.
Position N 55°60' E 012°42'.

Length 95 m; draft 5.8 m.

Type: Cargo ship. MMSI: 245391000.

Date/timePositionNaut miles runAvg speedWind from/ knotsBaromVisibWave heightAir tempDewpointWater temp
2014-Oct-31 18:33N 55°60' E 012°42'1110.9
2014-Oct-31 17:33N 55°49' E 012°44'1111.3
2014-Oct-31 16:33N 55°38' E 012°42'1211.8
2014-Oct-31 15:33N 55°26' E 012°42'5510.5
2014-Oct-31 10:21N 55°14' E 014°16'1411.7
2014-Oct-31 09:10N 55°24' E 014°32'811.6
2014-Oct-31 08:27N 55°29' E 014°44'1211.8
2014-Oct-31 07:27N 55°35' E 015°02'11111.2
2014-Oct-30 21:33N 56°57' E 017°16'1211.6
2014-Oct-30 20:33N 57°08' E 017°25'1111.4
2014-Oct-30 19:33N 57°19' E 017°33'  
2014-Oct-26 06:28N 57°27' E 017°48'1011.5
2014-Oct-26 05:33N 57°18' E 017°40'1211.8
2014-Oct-26 04:30N 57°06' E 017°32'11711.2
2014-Oct-25 18:03N 55°35' E 015°20'611.8
2014-Oct-25 17:33N 55°32' E 015°11'1211.8
2014-Oct-25 16:33N 55°27' E 014°52'1211.8
2014-Oct-25 15:33N 55°20' E 014°35'1212.0
2014-Oct-25 14:33N 55°11' E 014°22'1211.9
2014-Oct-25 13:33N 55°02' E 014°07'7011.7
2014-Oct-25 07:32N 54°32' E 012°17'1111.4
2014-Oct-25 06:33N 54°24' E 012°02'4711.7
2014-Oct-25 02:32N 54°32' E 010°42'1212.1
2014-Oct-25 01:33N 54°30' E 010°23'1110.7
2014-Oct-25 00:33N 54°22' E 010°10'1 1.4
2014-Oct-24 23:33N 54°22' E 010°07'8 7.6
2014-Oct-24 22:33N 54°21' E 009°55'7 7.1
2014-Oct-24 21:31N 54°18' E 009°43'8 7.1
2014-Oct-24 20:26N 54°13' E 009°34'25 6.1
2014-Oct-24 16:23N 53°53' E 009°08'5 6.5
2014-Oct-24 15:33N 53°51' E 008°60'1010.0
2014-Oct-24 14:33N 53°53' E 008°43'1110.1
2014-Oct-24 13:26N 53°59' E 008°27'7812.8
2014-Oct-24 07:23N 53°43' E 006°18'1113.5
2014-Oct-24 06:33N 53°39' E 006°00'1313.4
2014-Oct-24 05:33N 53°35' E 005°38'1413.8
2014-Oct-24 04:33N 53°31' E 005°16'1413.7
2014-Oct-24 03:32N 53°26' E 004°55'1312.7
2014-Oct-24 02:32N 53°18' E 004°38'1312.9
2014-Oct-24 01:32N 53°07' E 004°28'1312.2
2014-Oct-24 00:31N 52°56' E 004°18'11811.8
2014-Oct-23 14:32N 51°26' E 002°14'1414.1
2014-Oct-23 13:33N 51°14' E 002°03'1514.7
2014-Oct-23 12:33N 51°05' E 001°45'15311.7
2014-Oct-22 23:29N 50°15' W 002°03'1111.1
2014-Oct-22 22:29N 50°14' W 002°20'1112.2
2014-Oct-22 21:33N 50°13' W 002°37'1312.8
2014-Oct-22 20:33N 50°13' W 002°57'1313.0
2014-Oct-22 19:33N 50°12' W 003°18'1313.2
2014-Oct-22 18:33N 50°10' W 003°38'  

Dump ship's entire track history